RYR6NY EIDW-EIKY

Flight info

Callsign RYR6NY
Flight time 0h 40m
Altitude 24000
Route OLONO4E OLONO DCT KER
Aircraft B738/M-SDE3FGILRWY/SB1

Departure

Time 2026-04-22 18:44
Airport Dublin Airport (EIDW)

Arrival

Time 2026-04-22 19:24
Airport Kerry Airport (EIKY)
Time Latitude Longitude Altitude Speed Heading
2026-04-22 18:09 53.43264 -6.24604 237 ft 0 kts
2026-04-22 18:28 53.43245 -6.24607 210 ft 4 kts
2026-04-22 18:28 53.43220 -6.24611 213 ft 4 kts
2026-04-22 18:28 53.43199 -6.24605 210 ft 4 kts 303°
2026-04-22 18:28 53.43193 -6.24565 210 ft 4 kts 273°
2026-04-22 18:29 53.43192 -6.24550 210 ft 0 kts 275°
2026-04-22 18:36 53.43193 -6.24567 210 ft 5 kts 275°
2026-04-22 18:36 53.43200 -6.24681 210 ft 12 kts 275°
2026-04-22 18:36 53.43208 -6.24831 210 ft 13 kts 275°
2026-04-22 18:37 53.43216 -6.24985 219 ft 13 kts 275°
2026-04-22 18:37 53.43224 -6.25137 210 ft 13 kts 275°
2026-04-22 18:37 53.43229 -6.25235 213 ft 13 kts 275°
2026-04-22 18:37 53.43200 -6.25420 216 ft 12 kts 246°
2026-04-22 18:38 53.43181 -6.25494 212 ft 8 kts 247°
2026-04-22 18:38 53.43164 -6.25560 213 ft 4 kts 247°
2026-04-22 18:38 53.43157 -6.25591 216 ft 3 kts 247°
2026-04-22 18:39 53.43131 -6.25745 218 ft 13 kts 286°
2026-04-22 18:39 53.43208 -6.25843 212 ft 15 kts 336°
2026-04-22 18:39 53.43300 -6.25913 211 ft 14 kts 324°
2026-04-22 18:39 53.43310 -6.26062 213 ft 14 kts 248°
2026-04-22 18:40 53.43323 -6.26208 210 ft 15 kts 321°
2026-04-22 18:40 53.43414 -6.26333 213 ft 18 kts 320°
2026-04-22 18:40 53.43459 -6.26514 219 ft 17 kts 275°
2026-04-22 18:40 53.43471 -6.26727 210 ft 21 kts 275°
2026-04-22 18:41 53.43485 -6.26980 210 ft 22 kts 275°
2026-04-22 18:41 53.43499 -6.27236 212 ft 22 kts 275°
2026-04-22 18:41 53.43512 -6.27486 210 ft 21 kts 275°
2026-04-22 18:41 53.43526 -6.27729 216 ft 21 kts 275°
2026-04-22 18:42 53.43539 -6.27953 210 ft 16 kts 275°
2026-04-22 18:42 53.43550 -6.28075 210 ft 6 kts 299°
2026-04-22 18:42 53.43566 -6.28098 213 ft 1 kts 330°
2026-04-22 18:42 53.43568 -6.28101 213 ft 2 kts 333°
2026-04-22 18:43 53.43601 -6.28104 214 ft 8 kts
2026-04-22 18:43 53.43669 -6.28096 213 ft 11 kts
2026-04-22 18:43 53.43715 -6.28031 212 ft 10 kts 93°
2026-04-22 18:43 53.43697 -6.27705 210 ft 61 kts 95°
2026-04-22 18:44 53.43635 -6.26602 210 ft 126 kts 95°
2026-04-22 18:44 53.43543 -6.24935 561 ft 149 kts 94°
2026-04-22 18:44 53.43482 -6.23178 1309 ft 152 kts 91°
2026-04-22 18:44 53.43545 -6.21340 1832 ft 170 kts 88°
2026-04-22 18:45 53.43641 -6.19273 2211 ft 187 kts 88°
2026-04-22 18:45 53.43753 -6.17035 2804 ft 194 kts 89°
2026-04-22 18:45 53.43871 -6.14774 3550 ft 198 kts 89°
2026-04-22 18:45 53.43993 -6.12445 4368 ft 200 kts 89°
2026-04-22 18:46 53.44116 -6.10094 5142 ft 204 kts 90°
2026-04-22 18:46 53.44242 -6.07689 5840 ft 210 kts 90°
2026-04-22 18:46 53.44370 -6.05248 6581 ft 216 kts 90°
2026-04-22 18:46 53.44196 -6.02785 7280 ft 213 kts 118°
2026-04-22 18:47 53.43285 -6.00898 8099 ft 210 kts 146°
2026-04-22 18:47 53.41924 -5.99969 8948 ft 213 kts 171°
2026-04-22 18:47 53.40446 -6.00018 9758 ft 218 kts 183°
2026-04-22 18:47 53.38933 -6.00360 10576 ft 221 kts 185°
2026-04-22 18:48 53.37380 -6.00731 11386 ft 224 kts 185°
2026-04-22 18:48 53.35826 -6.01089 12189 ft 226 kts 185°
2026-04-22 18:48 53.34277 -6.01437 13021 ft 229 kts 185°
2026-04-22 18:48 53.32697 -6.02007 13696 ft 244 kts 202°
2026-04-22 18:49 53.31358 -6.04043 13932 ft 284 kts 234°
2026-04-22 18:49 53.30408 -6.07137 14175 ft 313 kts 240°
2026-04-22 18:49 53.29488 -6.10504 14853 ft 320 kts 242°
2026-04-22 18:49 53.28604 -6.13839 16125 ft 306 kts 242°
2026-04-22 18:50 53.27761 -6.17013 17476 ft 292 kts 242°
2026-04-22 18:50 53.26948 -6.20037 18807 ft 278 kts 242°
2026-04-22 18:50 53.26158 -6.22942 19733 ft 276 kts 242°
2026-04-22 18:50 53.25333 -6.25929 20113 ft 293 kts 242°
2026-04-22 18:51 53.24450 -6.29097 20431 ft 311 kts 242°
2026-04-22 18:51 53.23506 -6.32471 20771 ft 328 kts 242°
2026-04-22 18:51 53.22524 -6.35977 21293 ft 339 kts 242°
2026-04-22 18:51 53.21514 -6.39577 21917 ft 345 kts 242°
2026-04-22 18:52 53.20492 -6.43221 22668 ft 347 kts 242°
2026-04-22 18:52 53.19463 -6.46878 23288 ft 351 kts 242°
2026-04-22 18:52 53.18420 -6.50578 23542 ft 352 kts 241°
2026-04-22 18:52 53.17386 -6.54242 23812 ft 347 kts 241°
2026-04-22 18:53 53.16364 -6.57858 24047 ft 344 kts 241°
2026-04-22 18:53 53.15342 -6.61462 24265 ft 345 kts 241°
2026-04-22 18:53 53.14302 -6.65121 24273 ft 345 kts 241°
2026-04-22 18:53 53.13276 -6.68722 24284 ft 343 kts 241°
2026-04-22 18:54 53.12252 -6.72314 24287 ft 343 kts 241°
2026-04-22 18:54 53.11242 -6.75850 24286 ft 343 kts 241°
2026-04-22 18:54 53.10215 -6.79437 24285 ft 343 kts 241°
2026-04-22 18:54 53.09190 -6.83015 24281 ft 343 kts 241°
2026-04-22 18:55 53.08161 -6.86599 24275 ft 343 kts 241°
2026-04-22 18:55 53.07133 -6.90177 24271 ft 343 kts 241°
2026-04-22 18:55 53.06104 -6.93752 24266 ft 343 kts 241°
2026-04-22 18:55 53.05077 -6.97316 24262 ft 342 kts 241°
2026-04-22 18:56 53.04047 -7.00883 24261 ft 341 kts 241°
2026-04-22 18:56 53.03022 -7.04430 24256 ft 341 kts 241°
2026-04-22 18:56 53.01996 -7.07973 24258 ft 340 kts 241°
2026-04-22 18:56 53.00972 -7.11503 24257 ft 339 kts 241°
2026-04-22 18:57 52.99952 -7.15015 24256 ft 338 kts 241°
2026-04-22 18:57 52.98931 -7.18525 24256 ft 337 kts 241°
2026-04-22 18:57 52.97911 -7.22028 24249 ft 336 kts 241°
2026-04-22 18:57 52.96894 -7.25512 24254 ft 336 kts 241°
2026-04-22 18:58 52.95876 -7.28998 24249 ft 335 kts 241°
2026-04-22 18:58 52.94860 -7.32467 24249 ft 334 kts 241°
2026-04-22 18:58 52.93845 -7.35931 24248 ft 334 kts 242°
2026-04-22 18:58 52.92830 -7.39391 24247 ft 334 kts 242°
2026-04-22 18:59 52.91817 -7.42841 24241 ft 333 kts 242°
2026-04-22 18:59 52.90804 -7.46296 24243 ft 333 kts 242°
2026-04-22 18:59 52.89794 -7.49732 24238 ft 332 kts 242°
2026-04-22 18:59 52.88779 -7.53178 24239 ft 332 kts 242°
2026-04-22 19:00 52.87767 -7.56608 24239 ft 332 kts 242°
2026-04-22 19:00 52.86753 -7.60036 24238 ft 331 kts 242°
2026-04-22 19:00 52.85739 -7.63460 24234 ft 331 kts 242°
2026-04-22 19:00 52.84726 -7.66870 24230 ft 330 kts 242°
2026-04-22 19:01 52.83713 -7.70279 24230 ft 330 kts 242°
2026-04-22 19:01 52.82704 -7.73667 24229 ft 330 kts 242°
2026-04-22 19:01 52.81687 -7.77078 24226 ft 329 kts 242°
2026-04-22 19:01 52.80674 -7.80470 24224 ft 329 kts 242°
2026-04-22 19:02 52.79661 -7.83857 24228 ft 328 kts 242°
2026-04-22 19:02 52.78651 -7.87231 24227 ft 328 kts 242°
2026-04-22 19:02 52.77640 -7.90603 24223 ft 327 kts 242°
2026-04-22 19:02 52.76630 -7.93965 24225 ft 327 kts 242°
2026-04-22 19:03 52.75620 -7.97325 24223 ft 326 kts 242°
2026-04-22 19:03 52.74611 -8.00675 24220 ft 326 kts 241°
2026-04-22 19:03 52.73600 -8.04027 24222 ft 325 kts 241°
2026-04-22 19:03 52.72593 -8.07360 24216 ft 325 kts 241°
2026-04-22 19:04 52.71587 -8.10688 24220 ft 324 kts 241°
2026-04-22 19:04 52.70580 -8.14014 24224 ft 323 kts 241°
2026-04-22 19:04 52.69588 -8.17285 24219 ft 323 kts 241°
2026-04-22 19:04 52.68581 -8.20600 24092 ft 325 kts 241°
2026-04-22 19:05 52.67567 -8.23932 23779 ft 324 kts 241°
2026-04-22 19:05 52.66556 -8.27253 23309 ft 324 kts 241°
2026-04-22 19:05 52.65544 -8.30571 22780 ft 324 kts 241°
2026-04-22 19:05 52.64533 -8.33885 22300 ft 323 kts 241°
2026-04-22 19:06 52.63521 -8.37194 21794 ft 324 kts 240°
2026-04-22 19:06 52.62507 -8.40505 21285 ft 324 kts 240°
2026-04-22 19:06 52.61494 -8.43810 20775 ft 324 kts 240°
2026-04-22 19:07 52.59452 -8.50454 19727 ft 326 kts 240°
2026-04-22 19:07 52.58422 -8.53798 19167 ft 329 kts 240°
2026-04-22 19:07 52.57385 -8.57161 18636 ft 330 kts 240°
2026-04-22 19:07 52.56347 -8.60522 18124 ft 330 kts 240°
2026-04-22 19:08 52.55313 -8.63869 17647 ft 327 kts 240°
2026-04-22 19:08 52.54287 -8.67188 17185 ft 325 kts 239°
2026-04-22 19:08 52.53268 -8.70476 16743 ft 322 kts 239°
2026-04-22 19:08 52.52257 -8.73736 16306 ft 319 kts 239°
2026-04-22 19:09 52.51250 -8.76973 15880 ft 317 kts 239°
2026-04-22 19:09 52.50252 -8.80183 15456 ft 315 kts 239°
2026-04-22 19:09 52.49594 -8.82293 15175 ft 313 kts 239°
2026-04-22 19:09 52.48271 -8.86534 14614 ft 311 kts 238°
2026-04-22 19:10 52.47289 -8.89678 14200 ft 309 kts 238°
2026-04-22 19:10 52.46312 -8.92801 13749 ft 307 kts 238°
2026-04-22 19:10 52.45349 -8.95871 13304 ft 306 kts 238°
2026-04-22 19:10 52.44381 -8.98958 12884 ft 304 kts 238°
2026-04-22 19:11 52.43416 -9.02030 12465 ft 302 kts 238°
2026-04-22 19:11 52.42460 -9.05071 12066 ft 300 kts 237°
2026-04-22 19:11 52.41502 -9.08112 11553 ft 301 kts 237°
2026-04-22 19:11 52.40548 -9.11137 11132 ft 300 kts 237°
2026-04-22 19:12 52.39586 -9.14182 10712 ft 301 kts 237°
2026-04-22 19:12 52.38630 -9.17207 10440 ft 295 kts 237°
2026-04-22 19:12 52.37705 -9.20141 10302 ft 286 kts 237°
2026-04-22 19:12 52.36808 -9.22984 10162 ft 277 kts 237°
2026-04-22 19:13 52.35938 -9.25731 10033 ft 268 kts 237°
2026-04-22 19:13 52.35081 -9.28428 9714 ft 266 kts 236°
2026-04-22 19:13 52.34228 -9.31107 9406 ft 265 kts 236°
2026-04-22 19:13 52.33381 -9.33765 9099 ft 263 kts 236°
2026-04-22 19:14 52.32542 -9.36399 8802 ft 260 kts 236°
2026-04-22 19:14 52.31705 -9.39019 8500 ft 259 kts 235°
2026-04-22 19:14 52.30873 -9.41626 8205 ft 258 kts 235°
2026-04-22 19:14 52.30041 -9.44226 7902 ft 258 kts 235°
2026-04-22 19:15 52.29480 -9.45977 7685 ft 258 kts 235°
2026-04-22 19:15 52.28377 -9.49419 7288 ft 258 kts 235°
2026-04-22 19:15 52.27542 -9.52019 7013 ft 262 kts 234°
2026-04-22 19:15 52.26678 -9.54695 6700 ft 270 kts 234°
2026-04-22 19:16 52.25801 -9.57423 6374 ft 271 kts 234°
2026-04-22 19:16 52.24927 -9.60148 6052 ft 270 kts 235°
2026-04-22 19:16 52.24057 -9.62857 5733 ft 269 kts 235°
2026-04-22 19:16 52.23193 -9.65544 5440 ft 266 kts 234°
2026-04-22 19:17 52.22337 -9.68202 5152 ft 263 kts 234°
2026-04-22 19:17 52.21492 -9.70824 4936 ft 259 kts 234°
2026-04-22 19:17 52.20664 -9.73391 4734 ft 255 kts 234°
2026-04-22 19:17 52.19838 -9.75941 4500 ft 253 kts 233°
2026-04-22 19:18 52.19016 -9.78472 4324 ft 252 kts 233°
2026-04-22 19:18 52.18195 -9.80978 4152 ft 247 kts 230°
2026-04-22 19:18 52.17061 -9.82857 3997 ft 223 kts 199°
2026-04-22 19:18 52.15653 -9.83523 3870 ft 203 kts 178°
2026-04-22 19:19 52.14319 -9.83342 3698 ft 185 kts 156°
2026-04-22 19:19 52.13344 -9.82116 3499 ft 175 kts 129°
2026-04-22 19:19 52.12823 -9.80362 3283 ft 172 kts 110°
2026-04-22 19:19 52.12733 -9.78440 3101 ft 172 kts 91°
2026-04-22 19:20 52.13077 -9.76575 2896 ft 169 kts 82°
2026-04-22 19:20 52.13442 -9.74809 2713 ft 161 kts 83°
2026-04-22 19:20 52.13789 -9.73117 2542 ft 154 kts 83°
2026-04-22 19:20 52.14124 -9.71496 2354 ft 147 kts 83°
2026-04-22 19:21 52.14442 -9.69972 2214 ft 136 kts 83°
2026-04-22 19:21 52.14739 -9.68541 2116 ft 131 kts 83°
2026-04-22 19:21 52.15024 -9.67172 1918 ft 122 kts 85°
2026-04-22 19:21 52.15199 -9.66338 1806 ft 114 kts 86°
2026-04-22 19:22 52.15548 -9.64619 1586 ft 123 kts 83°
2026-04-22 19:22 52.15725 -9.63756 1451 ft 121 kts 82°
2026-04-22 19:22 52.15996 -9.62452 1275 ft 123 kts 82°
2026-04-22 19:22 52.16285 -9.61112 1106 ft 129 kts 80°
2026-04-22 19:23 52.16582 -9.59756 927 ft 123 kts 79°
2026-04-22 19:23 52.16852 -9.58427 764 ft 124 kts 78°
2026-04-22 19:23 52.17122 -9.57065 583 ft 129 kts 77°
2026-04-22 19:23 52.17408 -9.55703 408 ft 123 kts 82°
2026-04-22 19:24 52.17681 -9.54383 258 ft 125 kts 80°
2026-04-22 19:24 52.17956 -9.53047 122 ft 116 kts 77°
2026-04-22 19:24 52.18155 -9.52074 119 ft 60 kts 72°
2026-04-22 19:24 52.18252 -9.51605 123 ft 35 kts 71°
2026-04-22 19:25 52.18319 -9.51282 125 ft 27 kts 71°
2026-04-22 19:25 52.18382 -9.51075 122 ft 13 kts 57°
2026-04-22 19:25 52.18366 -9.51039 122 ft 5 kts 205°
2026-04-22 19:25 52.18344 -9.51140 124 ft 13 kts 255°
2026-04-22 19:26 52.18308 -9.51335 124 ft 23 kts 251°
2026-04-22 19:26 52.18246 -9.51634 122 ft 29 kts 251°
2026-04-22 19:26 52.18180 -9.51948 119 ft 29 kts 251°
2026-04-22 19:26 52.18118 -9.52242 118 ft 27 kts 251°
2026-04-22 19:27 52.18054 -9.52553 120 ft 31 kts 251°
2026-04-22 19:27 52.17984 -9.52886 122 ft 30 kts 251°
2026-04-22 19:27 52.17920 -9.53192 119 ft 27 kts 251°
2026-04-22 19:27 52.17864 -9.53459 120 ft 18 kts 251°
2026-04-22 19:28 52.17903 -9.53571 122 ft 14 kts 340°
2026-04-22 19:28 52.17992 -9.53621 121 ft 13 kts 340°
2026-04-22 19:28 52.18062 -9.53677 120 ft 10 kts 349°
2026-04-22 19:28 52.18095 -9.53645 121 ft 3 kts 80°
2026-04-22 19:29 52.18096 -9.53627 121 ft 1 kts 84°
2026-04-22 19:29 52.18097 -9.53616 123 ft 0 kts 84°